sensor_id;sensor_type;location;lat;lon;timestamp;pressure;altitude;pressure_sealevel;temperature;humidity
66627;BME280;53498;50.422;14.912;2024-01-15T00:00:01;-24003.03;;;-0.17;100.00
66627;BME280;53498;50.422;14.912;2024-01-15T00:02:26;-24002.13;;;-0.20;100.00
66627;BME280;53498;50.422;14.912;2024-01-15T00:04:52;-24001.66;;;-0.21;100.00
66627;BME280;53498;50.422;14.912;2024-01-15T00:07:17;-24003.19;;;-0.16;100.00
66627;BME280;53498;50.422;14.912;2024-01-15T00:09:43;-24004.28;;;-0.13;100.00
66627;BME280;53498;50.422;14.912;2024-01-15T00:12:08;-24004.13;;;-0.13;100.00
66627;BME280;53498;50.422;14.912;2024-01-15T00:14:34;-24002.13;;;-0.20;100.00
66627;BME280;53498;50.422;14.912;2024-01-15T00:17:00;-24001.34;;;-0.22;100.00
66627;BME280;53498;50.422;14.912;2024-01-15T00:19:28;-24001.97;;;-0.20;100.00
66627;BME280;53498;50.422;14.912;2024-01-15T00:21:57;-24001.66;;;-0.21;100.00
66627;BME280;53498;50.422;14.912;2024-01-15T00:24:23;-24000.56;;;-0.25;100.00
66627;BME280;53498;50.422;14.912;2024-01-15T00:26:48;-23999.78;;;-0.28;100.00
66627;BME280;53498;50.422;14.912;2024-01-15T00:29:14;-23999.63;;;-0.28;100.00
66627;BME280;53498;50.422;14.912;2024-01-15T00:31:39;-24000.41;;;-0.26;100.00
66627;BME280;53498;50.422;14.912;2024-01-15T00:34:05;-24001.19;;;-0.23;100.00
66627;BME280;53498;50.422;14.912;2024-01-15T00:36:30;-24001.19;;;-0.23;100.00
66627;BME280;53498;50.422;14.912;2024-01-15T00:38:56;-24001.97;;;-0.20;100.00
66627;BME280;53498;50.422;14.912;2024-01-15T00:41:21;-24000.41;;;-0.26;100.00
66627;BME280;53498;50.422;14.912;2024-01-15T00:43:47;-24001.19;;;-0.23;100.00
66627;BME280;53498;50.422;14.912;2024-01-15T00:46:16;-24001.66;;;-0.21;100.00
66627;BME280;53498;50.422;14.912;2024-01-15T00:48:41;-24001.19;;;-0.23;100.00
66627;BME280;53498;50.422;14.912;2024-01-15T00:51:07;-24001.50;;;-0.22;100.00
66627;BME280;53498;50.422;14.912;2024-01-15T00:53:33;-24000.56;;;-0.25;100.00
66627;BME280;53498;50.422;14.912;2024-01-15T00:55:58;-24001.97;;;-0.20;100.00
66627;BME280;53498;50.422;14.912;2024-01-15T00:58:25;-24001.97;;;-0.20;100.00
66627;BME280;53498;50.422;14.912;2024-01-15T01:00:51;-24002.41;;;-0.19;100.00
66627;BME280;53498;50.422;14.912;2024-01-15T01:03:16;-24001.97;;;-0.20;100.00
66627;BME280;53498;50.422;14.912;2024-01-15T01:05:42;-23999.16;;;-0.30;100.00
66627;BME280;53498;50.422;14.912;2024-01-15T01:08:09;-23998.84;;;-0.31;100.00
66627;BME280;53498;50.422;14.912;2024-01-15T01:10:34;-23998.38;;;-0.32;100.00
66627;BME280;53498;50.422;14.912;2024-01-15T01:13:00;-23998.53;;;-0.32;100.00
66627;BME280;53498;50.422;14.912;2024-01-15T01:15:26;-23998.06;;;-0.33;100.00
66627;BME280;53498;50.422;14.912;2024-01-15T01:17:52;-23998.06;;;-0.33;100.00
66627;BME280;53498;50.422;14.912;2024-01-15T01:20:18;-23998.53;;;-0.32;100.00
66627;BME280;53498;50.422;14.912;2024-01-15T01:22:44;-23999.47;;;-0.29;100.00
66627;BME280;53498;50.422;14.912;2024-01-15T01:25:09;-23999.16;;;-0.30;100.00
66627;BME280;53498;50.422;14.912;2024-01-15T01:27:35;-23996.34;;;-0.39;100.00
66627;BME280;53498;50.422;14.912;2024-01-15T01:30:01;-23996.97;;;-0.37;100.00
66627;BME280;53498;50.422;14.912;2024-01-15T01:32:27;-23997.13;;;-0.36;100.00
66627;BME280;53498;50.422;14.912;2024-01-15T01:34:52;-23996.66;;;-0.38;100.00
66627;BME280;53498;50.422;14.912;2024-01-15T01:37:18;-23996.97;;;-0.37;100.00
66627;BME280;53498;50.422;14.912;2024-01-15T01:39:43;-23997.44;;;-0.35;100.00
66627;BME280;53498;50.422;14.912;2024-01-15T01:42:10;-23997.59;;;-0.35;100.00
66627;BME280;53498;50.422;14.912;2024-01-15T01:44:35;-23997.28;;;-0.36;100.00
66627;BME280;53498;50.422;14.912;2024-01-15T01:47:01;-23995.28;;;-0.42;100.00
66627;BME280;53498;50.422;14.912;2024-01-15T01:49:28;-23996.34;;;-0.39;100.00
66627;BME280;53498;50.422;14.912;2024-01-15T01:51:58;-23995.13;;;-0.43;100.00
66627;BME280;53498;50.422;14.912;2024-01-15T01:54:29;-23995.13;;;-0.43;100.00
66627;BME280;53498;50.422;14.912;2024-01-15T01:57:00;-23995.72;;;-0.41;100.00
66627;BME280;53498;50.422;14.912;2024-01-15T01:59:27;-23992.47;;;-0.52;100.00
66627;BME280;53498;50.422;14.912;2024-01-15T02:01:54;-23994.19;;;-0.46;100.00
66627;BME280;53498;50.422;14.912;2024-01-15T02:04:22;-23996.34;;;-0.39;100.00
66627;BME280;53498;50.422;14.912;2024-01-15T02:06:50;-23995.91;;;-0.40;100.00
66627;BME280;53498;50.422;14.912;2024-01-15T02:09:15;-23994.81;;;-0.44;100.00
66627;BME280;53498;50.422;14.912;2024-01-15T02:11:46;-23996.97;;;-0.37;100.00
66627;BME280;53498;50.422;14.912;2024-01-15T02:14:12;-23997.91;;;-0.34;100.00
66627;BME280;53498;50.422;14.912;2024-01-15T02:16:37;-23996.97;;;-0.37;100.00
66627;BME280;53498;50.422;14.912;2024-01-15T02:19:03;-23998.84;;;-0.31;100.00
66627;BME280;53498;50.422;14.912;2024-01-15T02:21:29;-23999.31;;;-0.29;100.00
66627;BME280;53498;50.422;14.912;2024-01-15T02:23:56;-23996.19;;;-0.39;100.00
66627;BME280;53498;50.422;14.912;2024-01-15T02:26:22;-23997.44;;;-0.35;100.00
66627;BME280;53498;50.422;14.912;2024-01-15T02:28:48;-23996.19;;;-0.39;100.00
66627;BME280;53498;50.422;14.912;2024-01-15T02:31:14;-23997.28;;;-0.36;100.00
66627;BME280;53498;50.422;14.912;2024-01-15T02:33:39;-23995.72;;;-0.41;100.00
66627;BME280;53498;50.422;14.912;2024-01-15T02:36:05;-23996.66;;;-0.38;100.00
66627;BME280;53498;50.422;14.912;2024-01-15T02:38:31;-23996.34;;;-0.39;100.00
66627;BME280;53498;50.422;14.912;2024-01-15T02:40:57;-23995.56;;;-0.41;100.00
66627;BME280;53498;50.422;14.912;2024-01-15T02:43:22;-23996.03;;;-0.40;100.00
66627;BME280;53498;50.422;14.912;2024-01-15T02:45:48;-23994.50;;;-0.45;100.00
66627;BME280;53498;50.422;14.912;2024-01-15T02:48:13;-23995.28;;;-0.42;100.00
66627;BME280;53498;50.422;14.912;2024-01-15T02:50:42;-23995.44;;;-0.42;100.00
66627;BME280;53498;50.422;14.912;2024-01-15T02:53:08;-23998.69;;;-0.31;100.00
66627;BME280;53498;50.422;14.912;2024-01-15T02:55:33;-23997.91;;;-0.34;100.00
66627;BME280;53498;50.422;14.912;2024-01-15T02:57:59;-23999.16;;;-0.30;100.00
66627;BME280;53498;50.422;14.912;2024-01-15T03:00:25;-23996.66;;;-0.38;100.00
66627;BME280;53498;50.422;14.912;2024-01-15T03:02:51;-23996.34;;;-0.39;100.00
66627;BME280;53498;50.422;14.912;2024-01-15T03:05:17;-23996.34;;;-0.39;100.00
66627;BME280;53498;50.422;14.912;2024-01-15T03:07:42;-23997.13;;;-0.36;100.00
66627;BME280;53498;50.422;14.912;2024-01-15T03:10:08;-23996.50;;;-0.38;100.00
66627;BME280;53498;50.422;14.912;2024-01-15T03:12:34;-23994.50;;;-0.45;100.00
66627;BME280;53498;50.422;14.912;2024-01-15T03:15:00;-23995.72;;;-0.41;100.00
66627;BME280;53498;50.422;14.912;2024-01-15T03:17:25;-23993.88;;;-0.47;100.00
66627;BME280;53498;50.422;14.912;2024-01-15T03:19:51;-23994.19;;;-0.46;100.00
66627;BME280;53498;50.422;14.912;2024-01-15T03:22:17;-23993.72;;;-0.48;100.00
66627;BME280;53498;50.422;14.912;2024-01-15T03:24:43;-23991.53;;;-0.55;100.00
66627;BME280;53498;50.422;14.912;2024-01-15T03:27:09;-23992.63;;;-0.51;100.00
66627;BME280;53498;50.422;14.912;2024-01-15T03:29:34;-23992.31;;;-0.52;100.00
66627;BME280;53498;50.422;14.912;2024-01-15T03:32:00;-23990.13;;;-0.59;100.00
66627;BME280;53498;50.422;14.912;2024-01-15T03:34:26;-23991.06;;;-0.56;100.00
66627;BME280;53498;50.422;14.912;2024-01-15T03:36:51;-23990.75;;;-0.57;100.00
66627;BME280;53498;50.422;14.912;2024-01-15T03:39:17;-23991.53;;;-0.55;100.00
66627;BME280;53498;50.422;14.912;2024-01-15T03:41:42;-23992.00;;;-0.53;100.00
66627;BME280;53498;50.422;14.912;2024-01-15T03:44:08;-23991.38;;;-0.55;100.00
66627;BME280;53498;50.422;14.912;2024-01-15T03:46:33;-23992.31;;;-0.52;100.00
66627;BME280;53498;50.422;14.912;2024-01-15T03:48:59;-23993.41;;;-0.49;100.00
66627;BME280;53498;50.422;14.912;2024-01-15T03:51:28;-23992.00;;;-0.53;100.00
66627;BME280;53498;50.422;14.912;2024-01-15T03:53:53;-23993.88;;;-0.47;100.00
66627;BME280;53498;50.422;14.912;2024-01-15T03:56:19;-23994.50;;;-0.45;100.00
66627;BME280;53498;50.422;14.912;2024-01-15T03:58:44;-23992.47;;;-0.52;100.00
66627;BME280;53498;50.422;14.912;2024-01-15T04:01:10;-23993.72;;;-0.48;100.00
66627;BME280;53498;50.422;14.912;2024-01-15T04:03:36;-23994.19;;;-0.46;100.00
66627;BME280;53498;50.422;14.912;2024-01-15T04:06:03;-23994.97;;;-0.43;100.00
66627;BME280;53498;50.422;14.912;2024-01-15T04:08:28;-23992.63;;;-0.51;100.00
66627;BME280;53498;50.422;14.912;2024-01-15T04:10:54;-23993.56;;;-0.48;100.00
66627;BME280;53498;50.422;14.912;2024-01-15T04:13:20;-23992.78;;;-0.51;100.00
66627;BME280;53498;50.422;14.912;2024-01-15T04:15:46;-23992.47;;;-0.52;100.00
66627;BME280;53498;50.422;14.912;2024-01-15T04:18:11;-23991.38;;;-0.55;100.00
66627;BME280;53498;50.422;14.912;2024-01-15T04:20:37;-23992.16;;;-0.53;100.00
66627;BME280;53498;50.422;14.912;2024-01-15T04:23:04;-23993.72;;;-0.48;100.00
66627;BME280;53498;50.422;14.912;2024-01-15T04:25:30;-23991.69;;;-0.54;100.00
66627;BME280;53498;50.422;14.912;2024-01-15T04:27:55;-23993.25;;;-0.49;100.00
66627;BME280;53498;50.422;14.912;2024-01-15T04:30:21;-23992.16;;;-0.53;100.00
66627;BME280;53498;50.422;14.912;2024-01-15T04:32:47;-23992.16;;;-0.53;100.00
66627;BME280;53498;50.422;14.912;2024-01-15T04:35:12;-23991.69;;;-0.54;100.00
66627;BME280;53498;50.422;14.912;2024-01-15T04:37:39;-23992.31;;;-0.52;100.00
66627;BME280;53498;50.422;14.912;2024-01-15T04:40:05;-23993.41;;;-0.49;100.00
66627;BME280;53498;50.422;14.912;2024-01-15T04:42:31;-23995.28;;;-0.42;100.00
66627;BME280;53498;50.422;14.912;2024-01-15T04:44:57;-23991.69;;;-0.54;100.00
66627;BME280;53498;50.422;14.912;2024-01-15T04:47:22;-23989.81;;;-0.60;100.00
66627;BME280;53498;50.422;14.912;2024-01-15T04:49:48;-23990.44;;;-0.58;100.00
66627;BME280;53498;50.422;14.912;2024-01-15T04:52:15;-23990.44;;;-0.58;100.00
66627;BME280;53498;50.422;14.912;2024-01-15T04:54:40;-23990.91;;;-0.57;100.00
66627;BME280;53498;50.422;14.912;2024-01-15T04:57:06;-23991.22;;;-0.56;100.00
66627;BME280;53498;50.422;14.912;2024-01-15T04:59:31;-23990.75;;;-0.57;100.00
66627;BME280;53498;50.422;14.912;2024-01-15T05:01:57;-23990.44;;;-0.58;100.00
66627;BME280;53498;50.422;14.912;2024-01-15T05:04:23;-23990.59;;;-0.58;100.00
66627;BME280;53498;50.422;14.912;2024-01-15T05:06:50;-23989.66;;;-0.61;100.00
66627;BME280;53498;50.422;14.912;2024-01-15T05:09:16;-23990.59;;;-0.58;100.00
66627;BME280;53498;50.422;14.912;2024-01-15T05:11:43;-23992.00;;;-0.53;100.00
66627;BME280;53498;50.422;14.912;2024-01-15T05:14:09;-23993.88;;;-0.47;100.00
66627;BME280;53498;50.422;14.912;2024-01-15T05:16:34;-23992.63;;;-0.51;100.00
66627;BME280;53498;50.422;14.912;2024-01-15T05:19:00;-23993.88;;;-0.47;100.00
66627;BME280;53498;50.422;14.912;2024-01-15T05:21:25;-23993.25;;;-0.49;100.00
66627;BME280;53498;50.422;14.912;2024-01-15T05:23:51;-23993.56;;;-0.48;100.00
66627;BME280;53498;50.422;14.912;2024-01-15T05:26:17;-23991.84;;;-0.54;100.00
66627;BME280;53498;50.422;14.912;2024-01-15T05:28:42;-23992.16;;;-0.53;100.00
66627;BME280;53498;50.422;14.912;2024-01-15T05:31:08;-23992.00;;;-0.53;100.00
66627;BME280;53498;50.422;14.912;2024-01-15T05:33:34;-23992.00;;;-0.53;100.00
66627;BME280;53498;50.422;14.912;2024-01-15T05:36:00;-23994.19;;;-0.46;100.00
66627;BME280;53498;50.422;14.912;2024-01-15T05:38:25;-23991.69;;;-0.54;100.00
66627;BME280;53498;50.422;14.912;2024-01-15T05:40:51;-23992.94;;;-0.50;100.00
66627;BME280;53498;50.422;14.912;2024-01-15T05:43:16;-23993.88;;;-0.47;100.00
66627;BME280;53498;50.422;14.912;2024-01-15T05:45:45;-23992.63;;;-0.51;100.00
66627;BME280;53498;50.422;14.912;2024-01-15T05:48:11;-23991.06;;;-0.56;100.00
66627;BME280;53498;50.422;14.912;2024-01-15T05:50:38;-23991.06;;;-0.56;100.00
66627;BME280;53498;50.422;14.912;2024-01-15T05:53:04;-23990.44;;;-0.58;100.00
66627;BME280;53498;50.422;14.912;2024-01-15T05:55:29;-23990.44;;;-0.58;100.00
66627;BME280;53498;50.422;14.912;2024-01-15T05:57:55;-23988.88;;;-0.63;100.00
66627;BME280;53498;50.422;14.912;2024-01-15T06:00:21;-23988.88;;;-0.63;100.00
66627;BME280;53498;50.422;14.912;2024-01-15T06:02:46;-23987.66;;;-0.67;100.00
66627;BME280;53498;50.422;14.912;2024-01-15T06:05:12;-23983.59;;;-0.81;100.00
66627;BME280;53498;50.422;14.912;2024-01-15T06:07:37;-23982.66;;;-0.84;100.00
66627;BME280;53498;50.422;14.912;2024-01-15T06:10:03;-23981.56;;;-0.87;100.00
66627;BME280;53498;50.422;14.912;2024-01-15T06:12:32;-23980.16;;;-0.92;100.00
66627;BME280;53498;50.422;14.912;2024-01-15T06:14:59;-23976.75;;;-1.03;100.00
66627;BME280;53498;50.422;14.912;2024-01-15T06:17:24;-23975.19;;;-1.08;100.00
66627;BME280;53498;50.422;14.912;2024-01-15T06:19:50;-23973.31;;;-1.14;100.00
66627;BME280;53498;50.422;14.912;2024-01-15T06:22:15;-23971.31;;;-1.21;100.00
66627;BME280;53498;50.422;14.912;2024-01-15T06:24:41;-23970.22;;;-1.25;100.00
66627;BME280;53498;50.422;14.912;2024-01-15T06:27:07;-23970.06;;;-1.25;100.00
66627;BME280;53498;50.422;14.912;2024-01-15T06:29:37;-23968.66;;;-1.30;100.00
66627;BME280;53498;50.422;14.912;2024-01-15T06:32:03;-23968.50;;;-1.30;100.00
66627;BME280;53498;50.422;14.912;2024-01-15T06:34:29;-23969.28;;;-1.28;100.00
66627;BME280;53498;50.422;14.912;2024-01-15T06:36:54;-23966.94;;;-1.35;100.00
66627;BME280;53498;50.422;14.912;2024-01-15T06:39:20;-23968.97;;;-1.29;100.00
66627;BME280;53498;50.422;14.912;2024-01-15T06:41:46;-23968.50;;;-1.30;100.00
66627;BME280;53498;50.422;14.912;2024-01-15T06:44:12;-23969.59;;;-1.27;100.00
66627;BME280;53498;50.422;14.912;2024-01-15T06:46:44;-23968.97;;;-1.29;100.00
66627;BME280;53498;50.422;14.912;2024-01-15T06:49:11;-23969.75;;;-1.26;100.00
66627;BME280;53498;50.422;14.912;2024-01-15T06:51:37;-23969.28;;;-1.28;100.00
66627;BME280;53498;50.422;14.912;2024-01-15T06:54:03;-23970.06;;;-1.25;100.00
66627;BME280;53498;50.422;14.912;2024-01-15T06:56:29;-23970.69;;;-1.23;100.00
66627;BME280;53498;50.422;14.912;2024-01-15T06:58:54;-23970.53;;;-1.24;100.00
66627;BME280;53498;50.422;14.912;2024-01-15T07:01:20;-23973.47;;;-1.14;100.00
66627;BME280;53498;50.422;14.912;2024-01-15T07:03:46;-23972.09;;;-1.19;100.00
66627;BME280;53498;50.422;14.912;2024-01-15T07:06:12;-23971.16;;;-1.22;100.00
66627;BME280;53498;50.422;14.912;2024-01-15T07:08:39;-23970.22;;;-1.25;100.00
66627;BME280;53498;50.422;14.912;2024-01-15T07:11:05;-23968.97;;;-1.29;100.00
66627;BME280;53498;50.422;14.912;2024-01-15T07:13:34;-23969.28;;;-1.28;100.00
66627;BME280;53498;50.422;14.912;2024-01-15T07:16:01;-23970.53;;;-1.24;100.00
66627;BME280;53498;50.422;14.912;2024-01-15T07:18:27;-23972.09;;;-1.19;100.00
66627;BME280;53498;50.422;14.912;2024-01-15T07:20:52;-23969.44;;;-1.27;99.79
66627;BME280;53498;50.422;14.912;2024-01-15T07:23:18;-23970.06;;;-1.25;99.53
66627;BME280;53498;50.422;14.912;2024-01-15T07:25:43;-23968.34;;;-1.31;99.68
66627;BME280;53498;50.422;14.912;2024-01-15T07:28:09;-23972.22;;;-1.18;99.54
66627;BME280;53498;50.422;14.912;2024-01-15T07:30:35;-23971.94;;;-1.19;99.43
66627;BME280;53498;50.422;14.912;2024-01-15T07:33:00;-23973.94;;;-1.12;98.85
66627;BME280;53498;50.422;14.912;2024-01-15T07:35:26;-23974.25;;;-1.11;99.43
66627;BME280;53498;50.422;14.912;2024-01-15T07:37:52;-23978.16;;;-0.99;98.79
66627;BME280;53498;50.422;14.912;2024-01-15T07:40:17;-23979.09;;;-0.96;98.40
66627;BME280;53498;50.422;14.912;2024-01-15T07:42:43;-23979.72;;;-0.94;98.14
66627;BME280;53498;50.422;14.912;2024-01-15T07:45:10;-23982.50;;;-0.84;97.78
66627;BME280;53498;50.422;14.912;2024-01-15T07:47:36;-23979.88;;;-0.93;98.05
66627;BME280;53498;50.422;14.912;2024-01-15T07:50:02;-23979.09;;;-0.96;97.79
66627;BME280;53498;50.422;14.912;2024-01-15T07:52:27;-23983.44;;;-0.81;97.29
66627;BME280;53498;50.422;14.912;2024-01-15T07:54:53;-23980.66;;;-0.90;97.02
66627;BME280;53498;50.422;14.912;2024-01-15T07:57:18;-23980.66;;;-0.90;96.80
66627;BME280;53498;50.422;14.912;2024-01-15T07:59:44;-23982.03;;;-0.86;96.62
66627;BME280;53498;50.422;14.912;2024-01-15T08:02:10;-23983.44;;;-0.81;95.98
66627;BME280;53498;50.422;14.912;2024-01-15T08:04:37;-23982.81;;;-0.83;95.66
66627;BME280;53498;50.422;14.912;2024-01-15T08:07:04;-23983.59;;;-0.81;95.76
66627;BME280;53498;50.422;14.912;2024-01-15T08:09:31;-23983.28;;;-0.82;95.45
66627;BME280;53498;50.422;14.912;2024-01-15T08:11:56;-23984.84;;;-0.77;95.52
66627;BME280;53498;50.422;14.912;2024-01-15T08:14:22;-23986.25;;;-0.72;94.70
66627;BME280;53498;50.422;14.912;2024-01-15T08:16:47;-23988.28;;;-0.65;94.36
66627;BME280;53498;50.422;14.912;2024-01-15T08:19:13;-23989.50;;;-0.61;94.05
66627;BME280;53498;50.422;14.912;2024-01-15T08:21:39;-23992.31;;;-0.52;93.93
66627;BME280;53498;50.422;14.912;2024-01-15T08:24:05;-23991.06;;;-0.56;93.42
66627;BME280;53498;50.422;14.912;2024-01-15T08:26:31;-23993.25;;;-0.49;93.81
66627;BME280;53498;50.422;14.912;2024-01-15T08:28:58;-23993.56;;;-0.48;93.04
66627;BME280;53498;50.422;14.912;2024-01-15T08:31:24;-23992.31;;;-0.52;92.98
66627;BME280;53498;50.422;14.912;2024-01-15T08:33:49;-23992.16;;;-0.53;93.20
66627;BME280;53498;50.422;14.912;2024-01-15T08:36:15;-23992.63;;;-0.51;92.74
66627;BME280;53498;50.422;14.912;2024-01-15T08:38:41;-23995.72;;;-0.41;92.68
66627;BME280;53498;50.422;14.912;2024-01-15T08:41:06;-23997.28;;;-0.36;92.35
66627;BME280;53498;50.422;14.912;2024-01-15T08:43:34;-24000.09;;;-0.27;92.63
66627;BME280;53498;50.422;14.912;2024-01-15T08:45:59;-23998.22;;;-0.33;91.68
66627;BME280;53498;50.422;14.912;2024-01-15T08:48:25;-23999.94;;;-0.27;91.17
66627;BME280;53498;50.422;14.912;2024-01-15T08:50:53;-24001.19;;;-0.23;91.06
66627;BME280;53498;50.422;14.912;2024-01-15T08:53:20;-24000.56;;;-0.25;90.80
66627;BME280;53498;50.422;14.912;2024-01-15T08:55:46;-24003.50;;;-0.15;90.98
66627;BME280;53498;50.422;14.912;2024-01-15T08:58:11;-24001.03;;;-0.24;89.91
66627;BME280;53498;50.422;14.912;2024-01-15T09:00:37;-24003.19;;;-0.16;90.62
66627;BME280;53498;50.422;14.912;2024-01-15T09:03:02;-24001.66;;;-0.21;91.14
66627;BME280;53498;50.422;14.912;2024-01-15T09:05:28;-24002.75;;;-0.18;90.68
66627;BME280;53498;50.422;14.912;2024-01-15T09:07:55;-24000.56;;;-0.25;91.08
66627;BME280;53498;50.422;14.912;2024-01-15T09:10:20;-24003.03;;;-0.17;89.91
66627;BME280;53498;50.422;14.912;2024-01-15T09:12:46;-24003.03;;;-0.17;89.50
66627;BME280;53498;50.422;14.912;2024-01-15T09:15:12;-24001.97;;;-0.20;89.85
66627;BME280;53498;50.422;14.912;2024-01-15T09:17:38;-24003.66;;;-0.15;90.23
66627;BME280;53498;50.422;14.912;2024-01-15T09:20:04;-24003.34;;;-0.16;89.47
66627;BME280;53498;50.422;14.912;2024-01-15T09:22:31;-24003.97;;;-0.14;89.47
66627;BME280;53498;50.422;14.912;2024-01-15T09:24:58;-24003.97;;;-0.14;89.03
66627;BME280;53498;50.422;14.912;2024-01-15T09:27:24;-24001.50;;;-0.22;88.35
66627;BME280;53498;50.422;14.912;2024-01-15T09:29:52;-24002.88;;;-0.17;89.51
66627;BME280;53498;50.422;14.912;2024-01-15T09:32:18;-24003.81;;;-0.14;88.99
66627;BME280;53498;50.422;14.912;2024-01-15T09:34:45;-23999.78;;;-0.28;89.49
66627;BME280;53498;50.422;14.912;2024-01-15T09:37:12;-24001.81;;;-0.21;89.30
66627;BME280;53498;50.422;14.912;2024-01-15T09:39:37;-24002.25;;;-0.19;88.19
66627;BME280;53498;50.422;14.912;2024-01-15T09:42:04;-24004.91;;;-0.11;88.14
66627;BME280;53498;50.422;14.912;2024-01-15T09:44:30;-24003.97;;;-0.14;88.70
66627;BME280;53498;50.422;14.912;2024-01-15T09:46:57;-24004.75;;;-0.11;88.68
66627;BME280;53498;50.422;14.912;2024-01-15T09:49:22;-24003.81;;;-0.14;88.42
66627;BME280;53498;50.422;14.912;2024-01-15T09:51:49;-24006.31;;;-0.06;88.00
66627;BME280;53498;50.422;14.912;2024-01-15T09:54:15;-24006.16;;;-0.07;87.80
66627;BME280;53498;50.422;14.912;2024-01-15T09:56:46;-24007.72;;;-0.02;87.06
66627;BME280;53498;50.422;14.912;2024-01-15T09:59:18;-24009.88;;;0.06;87.36
66627;BME280;53498;50.422;14.912;2024-01-15T10:01:45;-24010.97;;;0.09;87.38
66627;BME280;53498;50.422;14.912;2024-01-15T10:04:11;-24010.97;;;0.09;86.86
66627;BME280;53498;50.422;14.912;2024-01-15T10:06:51;-24010.03;;;0.06;87.27
66627;BME280;53498;50.422;14.912;2024-01-15T10:09:17;-24009.56;;;0.05;86.55
66627;BME280;53498;50.422;14.912;2024-01-15T10:11:43;-24012.38;;;0.14;86.39
66627;BME280;53498;50.422;14.912;2024-01-15T10:14:10;-24013.00;;;0.16;86.01
66627;BME280;53498;50.422;14.912;2024-01-15T10:16:39;-24014.72;;;0.21;86.11
66627;BME280;53498;50.422;14.912;2024-01-15T10:19:05;-24012.53;;;0.14;85.94
66627;BME280;53498;50.422;14.912;2024-01-15T10:21:34;-24013.47;;;0.17;85.74
66627;BME280;53498;50.422;14.912;2024-01-15T10:24:01;-24017.81;;;0.32;85.68
66627;BME280;53498;50.422;14.912;2024-01-15T10:26:28;-24015.97;;;0.26;85.08
66627;BME280;53498;50.422;14.912;2024-01-15T10:28:54;-24015.03;;;0.22;84.60
66627;BME280;53498;50.422;14.912;2024-01-15T10:31:20;-24017.19;;;0.30;84.96
66627;BME280;53498;50.422;14.912;2024-01-15T10:33:49;-24016.88;;;0.29;85.27
66627;BME280;53498;50.422;14.912;2024-01-15T10:36:16;-24013.78;;;0.18;85.04
66627;BME280;53498;50.422;14.912;2024-01-15T10:38:43;-24014.41;;;0.20;84.30
66627;BME280;53498;50.422;14.912;2024-01-15T10:41:09;-24012.53;;;0.14;85.32
66627;BME280;53498;50.422;14.912;2024-01-15T10:43:34;-24012.22;;;0.13;85.02
66627;BME280;53498;50.422;14.912;2024-01-15T10:46:00;-24012.38;;;0.14;85.08
66627;BME280;53498;50.422;14.912;2024-01-15T10:48:26;-24013.94;;;0.19;84.19
66627;BME280;53498;50.422;14.912;2024-01-15T10:50:54;-24015.34;;;0.23;84.98
66627;BME280;53498;50.422;14.912;2024-01-15T10:53:20;-24016.56;;;0.28;84.76
66627;BME280;53498;50.422;14.912;2024-01-15T10:55:46;-24019.38;;;0.37;84.65
66627;BME280;53498;50.422;14.912;2024-01-15T10:58:14;-24019.84;;;0.38;83.43
66627;BME280;53498;50.422;14.912;2024-01-15T11:00:41;-24016.41;;;0.27;82.98
66627;BME280;53498;50.422;14.912;2024-01-15T11:03:07;-24018.91;;;0.35;83.29
66627;BME280;53498;50.422;14.912;2024-01-15T11:05:41;-24016.41;;;0.27;82.62
66627;BME280;53498;50.422;14.912;2024-01-15T11:08:08;-24018.13;;;0.33;83.08
66627;BME280;53498;50.422;14.912;2024-01-15T11:10:42;-24019.84;;;0.38;83.05
66627;BME280;53498;50.422;14.912;2024-01-15T11:13:21;-24022.00;;;0.45;83.82
66627;BME280;53498;50.422;14.912;2024-01-15T11:16:04;-24021.56;;;0.44;83.59
66627;BME280;53498;50.422;14.912;2024-01-15T11:18:40;-24021.38;;;0.43;83.58
66627;BME280;53498;50.422;14.912;2024-01-15T11:23:57;-24016.56;;;0.28;83.90
66627;BME280;53498;50.422;14.912;2024-01-15T11:29:07;-24016.72;;;0.28;83.48
66627;BME280;53498;50.422;14.912;2024-01-15T11:34:05;-24017.97;;;0.32;84.79
66627;BME280;53498;50.422;14.912;2024-01-15T11:42:00;-24019.69;;;0.38;83.51
66627;BME280;53498;50.422;14.912;2024-01-15T11:44:27;-24022.63;;;0.48;82.78
66627;BME280;53498;50.422;14.912;2024-01-15T11:47:07;-24026.53;;;0.60;82.00
66627;BME280;53498;50.422;14.912;2024-01-15T11:52:22;-24025.59;;;0.57;81.77
66627;BME280;53498;50.422;14.912;2024-01-15T11:55:16;-24026.22;;;0.59;82.35
66627;BME280;53498;50.422;14.912;2024-01-15T11:57:52;-24027.75;;;0.64;82.51
66627;BME280;53498;50.422;14.912;2024-01-15T12:00:18;-24029.78;;;0.71;82.44
66627;BME280;53498;50.422;14.912;2024-01-15T12:02:45;-24036.47;;;0.93;81.27
66627;BME280;53498;50.422;14.912;2024-01-15T12:05:13;-24041.44;;;1.09;79.33
66627;BME280;53498;50.422;14.912;2024-01-15T12:07:43;-24044.53;;;1.20;78.63
66627;BME280;53498;50.422;14.912;2024-01-15T12:10:17;-24043.63;;;1.17;77.83
66627;BME280;53498;50.422;14.912;2024-01-15T12:12:57;-24044.53;;;1.20;78.29
66627;BME280;53498;50.422;14.912;2024-01-15T12:15:24;-24047.97;;;1.31;78.28
66627;BME280;53498;50.422;14.912;2024-01-15T12:17:50;-24050.44;;;1.39;77.60
66627;BME280;53498;50.422;14.912;2024-01-15T12:20:17;-24051.69;;;1.43;78.12
66627;BME280;53498;50.422;14.912;2024-01-15T12:22:44;-24050.91;;;1.41;77.21
66627;BME280;53498;50.422;14.912;2024-01-15T12:25:10;-24051.38;;;1.42;76.37
66627;BME280;53498;50.422;14.912;2024-01-15T12:27:35;-24050.91;;;1.41;77.05
66627;BME280;53498;50.422;14.912;2024-01-15T12:30:01;-24051.84;;;1.44;76.45
66627;BME280;53498;50.422;14.912;2024-01-15T12:32:27;-24052.31;;;1.45;76.70
66627;BME280;53498;50.422;14.912;2024-01-15T12:34:52;-24050.75;;;1.40;77.12
66627;BME280;53498;50.422;14.912;2024-01-15T12:37:18;-24051.06;;;1.41;76.33
66627;BME280;53498;50.422;14.912;2024-01-15T12:39:45;-24052.31;;;1.45;76.09
66627;BME280;53498;50.422;14.912;2024-01-15T12:42:11;-24053.09;;;1.48;76.65
66627;BME280;53498;50.422;14.912;2024-01-15T12:44:38;-24055.09;;;1.54;75.91
66627;BME280;53498;50.422;14.912;2024-01-15T12:47:05;-24056.97;;;1.60;76.41